createdAt,value
2022-09-09T00:02:22.642Z,100678.20
2022-09-09T00:05:09.939Z,100675.80
2022-09-09T00:07:54.196Z,100672.40
2022-09-09T00:10:43.339Z,100666.80
2022-09-09T00:13:29.320Z,100667.80
2022-09-09T00:16:21.372Z,100658.80
2022-09-09T00:19:22.319Z,100665.20
2022-09-09T00:22:21.433Z,100662.20
2022-09-09T00:24:58.763Z,100662.60
2022-09-09T00:27:46.726Z,100660.00
2022-09-09T00:30:26.916Z,100655.20
2022-09-09T00:33:16.076Z,100656.00
2022-09-09T00:35:51.037Z,100655.40
2022-09-09T00:38:45.324Z,100656.20
2022-09-09T00:41:29.957Z,100656.40
2022-09-09T00:44:29.435Z,100651.00
2022-09-09T00:47:35.594Z,100646.20
2022-09-09T00:50:48.110Z,100643.80
2022-09-09T00:53:44.235Z,100643.20
2022-09-09T00:56:24.824Z,100645.60
2022-09-09T00:59:12.744Z,100639.40
2022-09-09T01:01:41.618Z,100640.40
2022-09-09T01:04:21.894Z,100642.80
2022-09-09T01:07:03.069Z,100643.20
2022-09-09T01:09:59.940Z,100642.60
2022-09-09T01:12:40.901Z,100645.80
2022-09-09T01:15:31.497Z,100639.60
2022-09-09T01:18:16.683Z,100638.80
2022-09-09T01:21:07.627Z,100639.60
2022-09-09T01:24:12.525Z,100639.80
2022-09-09T01:26:46.817Z,100645.20
2022-09-09T01:29:18.507Z,100647.60
2022-09-09T01:32:03.380Z,100647.60
2022-09-09T01:34:40.523Z,100641.40
2022-09-09T01:37:13.317Z,100644.60
2022-09-09T01:39:46.112Z,100641.20
2022-09-09T01:42:17.531Z,100642.00
2022-09-09T01:44:45.287Z,100644.00
2022-09-09T01:47:13.316Z,100643.80
2022-09-09T01:49:41.176Z,100645.00
2022-09-09T01:52:10.003Z,100646.20
2022-09-09T01:54:37.948Z,100645.80
2022-09-09T01:57:26.069Z,100641.00
2022-09-09T02:00:15.769Z,100643.60
2022-09-09T02:03:01.651Z,100643.80
2022-09-09T02:05:44.565Z,100645.60
2022-09-09T02:08:25.083Z,100638.20
2022-09-09T02:11:16.121Z,100639.80
2022-09-09T02:13:47.431Z,100642.80
2022-09-09T02:16:27.430Z,100641.80
2022-09-09T02:19:05.786Z,100640.40
2022-09-09T02:21:36.279Z,100640.40
2022-09-09T02:24:10.947Z,100641.60
2022-09-09T02:26:43.770Z,100636.00
2022-09-09T02:29:26.393Z,100639.40
2022-09-09T02:31:57.708Z,100636.80
2022-09-09T02:34:28.922Z,100635.00
2022-09-09T02:37:01.012Z,100636.80
2022-09-09T02:39:28.784Z,100637.80
2022-09-09T02:41:57.503Z,100634.80
2022-09-09T02:44:25.224Z,100634.40
2022-09-09T02:47:33.002Z,100631.80
2022-09-09T02:50:14.368Z,100636.40
2022-09-09T02:53:16.271Z,100636.00
2022-09-09T02:55:55.869Z,100639.20
2022-09-09T02:58:24.517Z,100633.20
2022-09-09T03:00:53.696Z,100637.00
2022-09-09T03:03:23.175Z,100640.20
2022-09-09T03:05:50.861Z,100646.40
2022-09-09T03:08:19.055Z,100644.40
2022-09-09T03:10:46.859Z,100649.60
2022-09-09T03:13:16.406Z,100654.20
2022-09-09T03:15:44.352Z,100663.60
2022-09-09T03:18:12.339Z,100671.00
2022-09-09T03:20:40.035Z,100674.80
2022-09-09T03:23:11.294Z,100682.20
2022-09-09T03:25:51.384Z,100687.60
2022-09-09T03:28:19.938Z,100697.40
2022-09-09T03:30:47.652Z,100700.80
2022-09-09T03:33:17.336Z,100708.60
2022-09-09T03:35:51.881Z,100712.60
2022-09-09T03:38:19.704Z,100726.20
2022-09-09T03:40:56.618Z,100730.60
2022-09-09T03:43:26.526Z,100730.60
2022-09-09T03:45:57.999Z,100737.80
2022-09-09T03:48:29.136Z,100735.60
2022-09-09T03:51:02.458Z,100729.40
2022-09-09T03:53:31.752Z,100731.20
2022-09-09T03:56:01.005Z,100730.60
2022-09-09T03:58:29.855Z,100721.60
2022-09-09T04:01:04.872Z,100726.80
2022-09-09T04:03:33.329Z,100732.80
2022-09-09T04:06:04.674Z,100731.60
2022-09-09T04:08:32.935Z,100728.20
2022-09-09T04:11:06.451Z,100730.00
2022-09-09T04:13:36.508Z,100722.20
2022-09-09T04:16:05.018Z,100728.40
2022-09-09T04:18:33.526Z,100729.40
2022-09-09T04:21:02.385Z,100734.60
2022-09-09T04:23:30.744Z,100731.20
2022-09-09T04:26:00.624Z,100730.40
2022-09-09T04:28:32.803Z,100733.80
2022-09-09T04:31:30.288Z,100731.60
2022-09-09T04:33:58.228Z,100735.80
2022-09-09T04:36:25.968Z,100730.80
2022-09-09T04:38:54.185Z,100735.20
2022-09-09T04:41:22.215Z,100736.00
2022-09-09T04:43:50.397Z,100738.40
2022-09-09T04:46:18.550Z,100738.80
2022-09-09T04:48:46.471Z,100733.80
2022-09-09T04:51:15.303Z,100732.20
2022-09-09T04:53:43.484Z,100736.20
2022-09-09T04:56:19.115Z,100734.40
2022-09-09T04:58:47.153Z,100736.80
2022-09-09T05:01:19.494Z,100733.00
2022-09-09T05:03:48.946Z,100737.80
2022-09-09T05:06:22.773Z,100741.40
2022-09-09T05:08:50.844Z,100743.40
2022-09-09T05:14:19.346Z,100747.00
2022-09-09T05:16:50.896Z,100753.60
2022-09-09T05:19:23.894Z,100747.20
2022-09-09T05:22:09.528Z,100745.00
2022-09-09T05:24:47.518Z,100742.80
2022-09-09T05:27:26.458Z,100748.20
2022-09-09T05:30:52.271Z,100745.20
2022-09-09T05:33:24.247Z,100744.20
2022-09-09T05:36:16.089Z,100746.00
2022-09-09T05:39:00.091Z,100740.40
2022-09-09T05:41:50.850Z,100739.80
2022-09-09T05:50:38.695Z,100743.20
2022-09-09T05:53:11.188Z,100750.00
2022-09-09T05:55:51.642Z,100753.60
2022-09-09T05:58:20.096Z,100750.60
2022-09-09T06:00:51.418Z,100750.80
2022-09-09T06:03:19.317Z,100755.00
2022-09-09T06:05:47.076Z,100752.60
2022-09-09T06:08:15.096Z,100747.00
2022-09-09T06:10:42.779Z,100748.40
2022-09-09T06:13:11.137Z,100752.20
2022-09-09T06:15:38.904Z,100758.60
2022-09-09T06:18:06.623Z,100763.40
2022-09-09T06:20:35.350Z,100763.00
2022-09-09T06:23:04.801Z,100765.20
2022-09-09T06:25:33.439Z,100761.00
2022-09-09T06:28:03.934Z,100761.40
2022-09-09T06:30:34.887Z,100765.20
2022-09-09T06:33:26.685Z,100763.40
2022-09-09T06:36:02.822Z,100766.60
2022-09-09T06:38:31.827Z,100768.80
2022-09-09T06:41:02.868Z,100763.20
2022-09-09T06:43:41.241Z,100763.60
2022-09-09T06:47:06.733Z,100759.80
2022-09-09T06:49:45.481Z,100766.40
2022-09-09T06:52:22.546Z,100769.40
2022-09-09T06:54:51.095Z,100774.20
2022-09-09T06:57:36.895Z,100774.20
2022-09-09T07:00:10.200Z,100774.00
2022-09-09T07:02:40.252Z,100774.20
2022-09-09T07:05:09.599Z,100776.80
2022-09-09T07:07:37.900Z,100777.00
2022-09-09T07:10:18.526Z,100778.40
2022-09-09T07:12:58.301Z,100777.40
2022-09-09T07:15:27.761Z,100780.40
2022-09-09T07:17:55.652Z,100775.00
2022-09-09T07:20:23.517Z,100778.80
2022-09-09T07:22:51.326Z,100779.40
2022-09-09T07:25:23.261Z,100775.00
2022-09-09T07:27:55.002Z,100775.00
2022-09-09T07:30:27.405Z,100775.80
2022-09-09T07:33:00.373Z,100778.60
2022-09-09T07:35:28.472Z,100774.80
2022-09-09T07:37:56.556Z,100781.80
2022-09-09T07:40:24.814Z,100777.00
2022-09-09T07:42:52.537Z,100780.80
2022-09-09T07:45:20.578Z,100780.40
2022-09-09T07:47:50.419Z,100778.60
2022-09-09T07:50:18.394Z,100777.00
2022-09-09T07:52:46.651Z,100782.20
2022-09-09T07:55:17.808Z,100784.00
2022-09-09T07:57:45.751Z,100784.80
2022-09-09T08:00:20.095Z,100778.20
2022-09-09T08:02:48.356Z,100785.00
2022-09-09T08:05:17.894Z,100788.00
2022-09-09T08:07:52.540Z,100785.80
2022-09-09T08:10:20.698Z,100789.20
2022-09-09T08:13:16.956Z,100793.60
2022-09-09T08:15:51.639Z,100794.80
2022-09-09T08:18:48.804Z,100795.00
2022-09-09T08:26:38.696Z,100793.00
2022-09-09T08:29:09.560Z,100798.00
2022-09-09T08:31:55.633Z,100802.20
2022-09-09T08:34:41.096Z,100805.80
2022-09-09T08:37:22.860Z,100807.80
2022-09-09T08:40:05.445Z,100804.80
2022-09-09T08:43:30.926Z,100804.20
2022-09-09T08:46:34.908Z,100805.40
2022-09-09T08:50:07.811Z,100808.80
2022-09-09T08:53:30.480Z,100811.00
2022-09-09T08:56:05.127Z,100804.60
2022-09-09T08:58:52.855Z,100808.80
2022-09-09T09:01:46.366Z,100805.60
2022-09-09T09:04:53.478Z,100803.80
2022-09-09T09:07:56.406Z,100809.40
2022-09-09T09:10:51.700Z,100804.20
2022-09-09T09:14:05.254Z,100807.20
2022-09-09T09:16:58.962Z,100807.00
2022-09-09T09:19:40.571Z,100806.20
2022-09-09T09:22:34.667Z,100805.20
2022-09-09T09:25:32.026Z,100803.20
2022-09-09T09:28:08.928Z,100800.40
2022-09-09T09:30:55.471Z,100807.60
2022-09-09T09:33:48.364Z,100801.60
2022-09-09T09:42:35.829Z,100817.00
2022-09-09T09:46:13.911Z,100814.80
2022-09-09T09:49:00.728Z,100811.80
2022-09-09T09:51:42.125Z,100813.00
2022-09-09T09:54:17.703Z,100817.20
2022-09-09T09:57:00.720Z,100816.40
2022-09-09T09:59:50.158Z,100817.80
2022-09-09T10:02:30.345Z,100808.80
2022-09-09T10:05:36.230Z,100814.60
2022-09-09T10:08:17.885Z,100810.80
2022-09-09T10:11:08.684Z,100805.80
2022-09-09T10:14:32.533Z,100805.00
2022-09-09T10:18:11.585Z,100800.20
2022-09-09T10:21:49.802Z,100803.20
2022-09-09T10:25:38.932Z,100799.80
2022-09-09T10:29:23.482Z,100805.20
2022-09-09T10:32:28.568Z,100809.60
2022-09-09T10:35:05.965Z,100807.80
2022-09-09T10:38:00.489Z,100808.60
2022-09-09T10:40:40.322Z,100814.20
2022-09-09T10:43:24.579Z,100813.20
2022-09-09T10:46:50.571Z,100817.60
2022-09-09T10:50:00.103Z,100810.60
2022-09-09T10:52:41.525Z,100814.20
2022-09-09T10:55:23.117Z,100809.80
2022-09-09T10:57:59.486Z,100805.80
2022-09-09T11:00:58.147Z,100802.20
2022-09-09T11:03:30.817Z,100802.80
2022-09-09T11:06:27.875Z,100799.20
2022-09-09T11:09:07.991Z,100800.40
2022-09-09T11:11:50.674Z,100801.40
2022-09-09T11:14:37.483Z,100805.40
2022-09-09T11:17:13.972Z,100809.40
2022-09-09T11:19:45.100Z,100809.80
2022-09-09T11:22:33.986Z,100815.60
2022-09-09T11:25:21.396Z,100809.80
2022-09-09T11:28:42.269Z,100814.60
2022-09-09T11:31:45.618Z,100815.00
2022-09-09T11:35:03.800Z,100817.60
2022-09-09T11:37:57.408Z,100821.20
2022-09-09T11:40:28.866Z,100817.60
2022-09-09T11:43:26.952Z,100822.00
2022-09-09T11:46:01.206Z,100825.00
2022-09-09T11:48:38.827Z,100824.00
2022-09-09T11:51:16.737Z,100822.80
2022-09-09T11:54:03.810Z,100822.40
2022-09-09T11:56:45.659Z,100824.60
2022-09-09T11:59:31.355Z,100827.40
2022-09-09T12:02:24.898Z,100818.80
2022-09-09T12:05:06.960Z,100825.20
2022-09-09T12:07:47.393Z,100828.00
2022-09-09T12:10:34.050Z,100826.40
2022-09-09T12:13:25.215Z,100828.40
2022-09-09T12:16:00.207Z,100824.40
2022-09-09T12:18:39.342Z,100831.60
2022-09-09T12:21:47.633Z,100833.80
2022-09-09T12:24:34.762Z,100832.00
2022-09-09T12:27:40.771Z,100838.60
2022-09-09T12:30:18.410Z,100838.60
2022-09-09T12:32:46.825Z,100840.40
2022-09-09T12:35:32.699Z,100838.60
2022-09-09T12:38:09.704Z,100835.20
2022-09-09T12:40:40.347Z,100838.60
2022-09-09T12:43:24.270Z,100838.20
2022-09-09T12:46:02.100Z,100827.80
2022-09-09T12:48:43.330Z,100832.40
2022-09-09T12:51:27.364Z,100831.80
2022-09-09T12:54:02.127Z,100832.80
2022-09-09T12:56:34.323Z,100834.00
2022-09-09T12:59:02.303Z,100841.20
2022-09-09T13:01:37.289Z,100834.00
2022-09-09T13:04:23.630Z,100828.00
2022-09-09T13:07:06.350Z,100834.20
2022-09-09T13:09:38.363Z,100833.00
2022-09-09T13:12:23.457Z,100831.20
2022-09-09T13:18:15.520Z,100829.80
2022-09-09T13:21:01.012Z,100827.00
2022-09-09T13:23:55.254Z,100824.00
2022-09-09T13:26:35.288Z,100825.20
2022-09-09T13:29:26.991Z,100820.00
2022-09-09T13:33:09.501Z,100814.60
2022-09-09T13:36:59.788Z,100812.60
2022-09-09T13:40:36.722Z,100815.00
2022-09-09T13:43:27.504Z,100811.40
2022-09-09T13:46:38.590Z,100810.20
2022-09-09T13:49:15.822Z,100805.00
2022-09-09T13:52:21.900Z,100804.00
2022-09-09T13:55:32.171Z,100805.80
2022-09-09T14:01:45.694Z,100800.60
2022-09-09T14:04:19.181Z,100800.20
2022-09-09T14:06:57.136Z,100796.60
2022-09-09T14:09:40.377Z,100797.20
2022-09-09T14:12:24.784Z,100795.60
2022-09-09T14:15:45.815Z,100794.60
2022-09-09T14:18:35.608Z,100794.00
2022-09-09T14:21:16.881Z,100794.60
2022-09-09T14:23:49.703Z,100789.20
2022-09-09T14:26:20.230Z,100794.00
2022-09-09T14:28:57.166Z,100796.40
2022-09-09T14:31:39.714Z,100798.20
2022-09-09T14:37:04.502Z,100800.20
2022-09-09T14:39:35.670Z,100799.60
2022-09-09T14:42:07.814Z,100800.60
2022-09-09T14:44:42.195Z,100804.60
2022-09-09T14:47:22.256Z,100810.00
2022-09-09T14:49:59.691Z,100806.40
2022-09-09T14:52:35.475Z,100808.80
2022-09-09T14:55:10.652Z,100814.40
2022-09-09T14:57:40.005Z,100816.80
2022-09-09T15:00:18.323Z,100808.60
2022-09-09T15:03:10.857Z,100810.40
2022-09-09T15:05:53.595Z,100805.80
2022-09-09T15:08:42.365Z,100807.60
2022-09-09T15:11:15.299Z,100804.20
2022-09-09T15:13:55.359Z,100801.60
2022-09-09T15:16:41.459Z,100796.40
2022-09-09T15:19:10.466Z,100799.00
2022-09-09T15:21:39.556Z,100802.60
2022-09-09T15:24:28.788Z,100811.60
2022-09-09T15:27:28.889Z,100817.00
2022-09-09T15:30:14.204Z,100822.60
2022-09-09T15:32:55.991Z,100817.00
2022-09-09T15:35:31.188Z,100822.80
2022-09-09T15:38:06.137Z,100821.00
2022-09-09T15:40:33.925Z,100825.00
2022-09-09T15:43:03.248Z,100819.60
2022-09-09T15:45:43.958Z,100815.40
2022-09-09T15:51:38.138Z,100818.40
2022-09-09T15:54:33.437Z,100820.40
2022-09-09T15:57:22.664Z,100816.20
2022-09-09T16:00:34.897Z,100818.00
2022-09-09T16:03:06.870Z,100817.40
2022-09-09T16:05:41.587Z,100824.40
2022-09-09T16:08:09.848Z,100824.80
2022-09-09T16:10:57.936Z,100827.20
2022-09-09T16:13:32.084Z,100825.80
2022-09-09T16:16:16.563Z,100821.40
2022-09-09T16:18:53.978Z,100819.00
2022-09-09T16:21:43.197Z,100816.60
2022-09-09T16:24:45.673Z,100821.40
2022-09-09T16:32:03.539Z,100819.60
2022-09-09T16:34:46.114Z,100809.00
2022-09-09T16:37:21.535Z,100809.00
2022-09-09T16:43:29.220Z,100814.20
2022-09-09T16:46:23.834Z,100813.20
2022-09-09T16:49:23.221Z,100809.40
2022-09-09T16:52:10.000Z,100812.60
2022-09-09T16:54:39.356Z,100811.00
2022-09-09T16:58:24.755Z,100810.00
2022-09-09T17:05:16.465Z,100817.60
2022-09-09T17:08:00.109Z,100821.60
2022-09-09T17:10:30.829Z,100820.40
2022-09-09T17:13:01.370Z,100819.20
2022-09-09T17:15:35.795Z,100821.60
2022-09-09T17:18:07.331Z,100819.60
2022-09-09T17:20:46.525Z,100823.60
2022-09-09T17:23:18.869Z,100823.00
2022-09-09T17:26:28.052Z,100820.80
2022-09-09T17:29:05.425Z,100825.20
2022-09-09T17:31:49.492Z,100828.40
2022-09-09T17:34:29.945Z,100835.20
2022-09-09T17:37:10.972Z,100841.20
2022-09-09T17:39:57.898Z,100848.40
2022-09-09T17:42:42.338Z,100845.40
2022-09-09T17:45:20.499Z,100849.80
2022-09-09T17:47:51.338Z,100854.20
2022-09-09T17:50:39.261Z,100856.60
2022-09-09T17:53:13.392Z,100857.80
2022-09-09T17:55:55.961Z,100855.00
2022-09-09T17:58:27.652Z,100855.80
2022-09-09T18:01:45.933Z,100864.40
2022-09-09T18:04:20.229Z,100869.00
2022-09-09T18:06:54.878Z,100870.60
2022-09-09T18:09:29.637Z,100874.60
2022-09-09T18:12:03.473Z,100875.20
2022-09-09T18:15:04.087Z,100872.00
2022-09-09T18:18:06.173Z,100873.00
2022-09-09T18:20:55.906Z,100866.60
2022-09-09T18:23:37.875Z,100860.20
2022-09-09T18:26:31.344Z,100862.20
2022-09-09T18:29:25.475Z,100861.60
2022-09-09T18:32:58.309Z,100859.80
2022-09-09T18:36:07.632Z,100855.20
2022-09-09T18:38:57.102Z,100856.40
2022-09-09T18:41:52.943Z,100859.60
2022-09-09T18:44:27.981Z,100860.40
2022-09-09T18:47:21.721Z,100860.60
2022-09-09T18:49:56.278Z,100861.00
2022-09-09T18:52:51.113Z,100868.00
2022-09-09T18:55:40.066Z,100866.00
2022-09-09T18:58:08.446Z,100867.80
2022-09-09T19:00:36.689Z,100865.60
2022-09-09T19:03:16.106Z,100870.40
2022-09-09T19:05:52.117Z,100874.40
2022-09-09T19:08:28.872Z,100870.80
2022-09-09T19:10:57.071Z,100878.80
2022-09-09T19:13:30.656Z,100871.60
2022-09-09T19:16:14.071Z,100876.80
2022-09-09T19:18:45.199Z,100872.80
2022-09-09T19:21:20.520Z,100873.40
2022-09-09T19:24:16.269Z,100870.60
2022-09-09T19:26:49.893Z,100868.40
2022-09-09T19:29:25.816Z,100858.40
2022-09-09T19:35:21.043Z,100857.20
2022-09-09T19:38:36.272Z,100858.40
2022-09-09T19:42:26.713Z,100857.60
2022-09-09T19:49:11.098Z,100860.40
2022-09-09T19:51:47.991Z,100855.40
2022-09-09T19:54:24.724Z,100855.20
2022-09-09T19:57:02.321Z,100857.00
2022-09-09T19:59:32.822Z,100863.20
2022-09-09T20:08:24.647Z,100864.60
2022-09-09T20:11:01.411Z,100865.60
2022-09-09T20:13:45.672Z,100867.00
2022-09-09T20:16:34.817Z,100873.00
2022-09-09T20:19:32.845Z,100874.80
2022-09-09T20:22:07.271Z,100874.60
2022-09-09T20:24:38.574Z,100875.60
2022-09-09T20:27:25.686Z,100878.20
2022-09-09T20:29:57.136Z,100877.40
2022-09-09T20:32:27.438Z,100875.60
2022-09-09T20:35:08.009Z,100871.60
2022-09-09T20:37:45.702Z,100869.40
2022-09-09T20:40:25.443Z,100871.00
2022-09-09T20:43:06.707Z,100874.40
2022-09-09T20:45:42.799Z,100874.60
2022-09-09T20:48:30.223Z,100877.40
2022-09-09T20:51:10.693Z,100870.80
2022-09-09T20:53:48.352Z,100872.80
2022-09-09T20:56:23.943Z,100875.00
2022-09-09T20:58:52.487Z,100876.00
2022-09-09T21:01:23.567Z,100881.00
2022-09-09T21:03:54.191Z,100873.80
2022-09-09T21:06:24.697Z,100870.80
2022-09-09T21:08:52.982Z,100871.00
2022-09-09T21:11:21.334Z,100869.00
2022-09-09T21:13:54.121Z,100866.20
2022-09-09T21:16:22.749Z,100867.80
2022-09-09T21:18:51.508Z,100868.20
2022-09-09T21:21:21.337Z,100876.40
2022-09-09T21:23:54.295Z,100871.40
2022-09-09T21:26:28.049Z,100869.60
2022-09-09T21:29:04.187Z,100872.00
2022-09-09T21:31:34.611Z,100868.60
2022-09-09T21:34:02.538Z,100864.60
2022-09-09T21:36:30.652Z,100868.40
2022-09-09T21:38:59.430Z,100871.40
2022-09-09T21:41:27.963Z,100868.60
2022-09-09T21:43:57.445Z,100872.40
2022-09-09T21:46:27.900Z,100875.80
2022-09-09T21:48:56.875Z,100873.80
2022-09-09T21:51:25.702Z,100874.00
2022-09-09T21:53:57.272Z,100872.60
2022-09-09T21:56:26.989Z,100870.20
2022-09-09T21:59:04.349Z,100868.20
2022-09-09T22:01:35.487Z,100870.20
2022-09-09T22:04:04.390Z,100870.40
2022-09-09T22:06:32.405Z,100863.20
2022-09-09T22:09:00.547Z,100864.80
2022-09-09T22:11:30.038Z,100862.80
2022-09-09T22:13:58.542Z,100866.80
2022-09-09T22:16:26.547Z,100870.80
2022-09-09T22:18:58.320Z,100869.40
2022-09-09T22:21:29.611Z,100863.60
2022-09-09T22:24:01.569Z,100863.80
2022-09-09T22:26:33.337Z,100865.80
2022-09-09T22:29:01.749Z,100866.20
2022-09-09T22:31:30.042Z,100868.80
2022-09-09T22:33:58.405Z,100861.00
2022-09-09T22:36:26.875Z,100856.20
2022-09-09T22:38:56.138Z,100860.00
2022-09-09T22:41:25.279Z,100862.40
2022-09-09T22:43:53.722Z,100860.60
2022-09-09T22:46:23.472Z,100863.80
2022-09-09T22:48:51.341Z,100862.80
2022-09-09T22:51:19.585Z,100862.40
2022-09-09T22:53:47.468Z,100861.00
2022-09-09T22:56:19.507Z,100855.20
2022-09-09T22:58:52.802Z,100862.60
2022-09-09T23:01:21.255Z,100865.20
2022-09-09T23:03:50.766Z,100864.60
2022-09-09T23:06:26.949Z,100866.40
2022-09-09T23:08:59.759Z,100865.20
2022-09-09T23:11:32.363Z,100866.00
2022-09-09T23:14:03.275Z,100867.20
2022-09-09T23:16:42.905Z,100866.00
2022-09-09T23:19:16.756Z,100864.00
2022-09-09T23:21:47.336Z,100860.20
2022-09-09T23:24:17.985Z,100854.60
2022-09-09T23:26:46.774Z,100845.00
2022-09-09T23:29:15.661Z,100836.00
2022-09-09T23:31:46.643Z,100835.60
2022-09-09T23:34:15.327Z,100831.60
2022-09-09T23:36:43.396Z,100831.00
2022-09-09T23:39:13.389Z,100831.60
2022-09-09T23:41:41.433Z,100833.60
2022-09-09T23:44:12.484Z,100836.00
2022-09-09T23:46:40.299Z,100832.60
2022-09-09T23:49:09.785Z,100838.80
2022-09-09T23:51:38.375Z,100840.00
2022-09-09T23:54:06.400Z,100835.60
2022-09-09T23:56:38.847Z,100846.00
2022-09-09T23:59:08.273Z,100840.20
